Portada
METAR-TAF:

METAR-TAF

Aeroports :

Aoba Island, Vanuatu

latitud: 15-18-24S, longitud: 167-58-02E, altitud: 51 m

Observació

L'informe es va fer fa 1 hora i 4 minuts, a les 02:00 UTC
Vent 5 kt del Sud/Sud-Est
Temperatura 27°C
Humitat 79%
Pressió 1015 hPa

METAR: NVSG 190200Z AUTO 16005KT //// // NCD 27/23 Q1015

Hora: 14:04 (03:04 UTC)

Pronòstic

L'informe es va fer fa 4 hores i 44 minuts, a les 22:20 UTC
Pronòstic vàlid del 19 a les 00 UTC al 19 a les 24 UTC
Vent 8 kt del Sud/Sud-Est
Visibilitat 10 km o més
Núvols disperses a una alçada de 2000 ft
Probabilitat 30%
entre IN i TE UTC
Visibilitat: 9000 m
Cel ennuvolat a una alçada de 1800 ft
xàfecs de pluja

TAF: NVSG 182220Z 1900/1924 15008KT 9999 SCT020 PROB30 INTER 1900/1912 9000 -SHRA BKN018

Observacions i pronòstics meteorològics de més de 4000 aeroports (METAR i TAF).

Les estacions disponibles són els punts grocs i vermells al mapa.

Posi el ratolí al punt desitjat per veure el nom de l'estació.

Feu clic per veure les observacions i els pronòstics meteorològics.

Per canviar el mapa: feu clic els botons verds amb una creu de color negre per apropar; al botó verd amb un guió per allunyar la imatge; o en les fletxes verdes per a mapes adjacents.


METAR-TAF: